Time;durP1;ratioP1;P1;durP2;ratioP2;P2;SDS_P1;SDS_P2;PMS_P1;PMS_P2;Temp;Humidity;BMP_temperature;BMP_pressure;BME280_temperature;BME280_humidity;BME280_pressure;Samples;Min_cycle;Max_cycle;Signal;HPM_P1;HPM_P2
2021/05/04 00:00:41;;;;;;;4.35;2.97;;;;;;;16.86;40.90;97031.25;4929698;29;20035;-71
2021/05/04 00:03:07;;;;;;;3.72;2.45;;;;;;;16.82;40.73;97036.09;4928383;29;20048;-71
2021/05/04 00:05:32;;;;;;;3.35;2.13;;;;;;;16.75;40.34;96997.75;4929371;29;20043;-70
2021/05/04 00:07:58;;;;;;;3.35;2.28;;;;;;;16.96;42.48;97033.94;4929429;29;20043;-70
2021/05/04 00:10:23;;;;;;;4.10;2.38;;;;;;;16.80;41.58;97016.91;4927650;29;20071;-71
2021/05/04 00:12:48;;;;;;;3.53;2.50;;;;;;;16.91;40.66;97044.78;4929711;29;20035;-70
2021/05/04 00:15:15;;;;;;;3.38;2.17;;;;;;;16.51;40.54;97002.34;4929579;29;20032;-70
2021/05/04 00:17:41;;;;;;;5.57;2.65;;;;;;;15.94;44.19;97026.19;4929595;29;20048;-70
2021/05/04 00:20:07;;;;;;;3.47;2.47;;;;;;;16.40;43.61;97060.28;4929375;29;20047;-70
2021/05/04 00:22:32;;;;;;;3.58;2.35;;;;;;;16.04;45.51;97016.16;4943639;29;20046;-70
2021/05/04 00:24:57;;;;;;;7.10;2.38;;;;;;;15.80;47.74;97048.56;4944157;29;20032;-70
2021/05/04 00:27:23;;;;;;;5.22;2.50;;;;;;;16.13;47.08;97045.25;4927527;29;20043;-70
2021/05/04 00:29:48;;;;;;;5.80;2.00;;;;;;;16.29;44.54;97042.78;4929276;29;20071;-71
2021/05/04 00:32:14;;;;;;;3.05;2.05;;;;;;;16.32;42.56;97046.75;4929195;29;20044;-70
2021/05/04 00:34:39;;;;;;;3.25;2.35;;;;;;;16.46;42.27;97047.50;4929439;29;20039;-70
2021/05/04 00:37:05;;;;;;;5.60;2.17;;;;;;;16.40;43.09;97049.09;4928571;29;20032;-70
2021/05/04 00:39:35;;;;;;;4.43;2.20;;;;;;;16.20;42.78;97000.47;4929831;29;20031;-71
2021/05/04 00:42:01;;;;;;;4.25;1.98;;;;;;;16.52;43.00;97040.25;4926956;29;20050;-70
2021/05/04 00:44:27;;;;;;;6.72;2.70;;;;;;;15.96;45.79;97040.53;4943809;29;20123;-70
2021/05/04 00:46:52;;;;;;;6.93;3.10;;;;;;;16.22;44.80;97058.75;4929092;29;20031;-70
2021/05/04 00:49:18;;;;;;;5.97;3.00;;;;;;;15.91;45.59;96982.28;4929969;29;20114;-70
2021/05/04 00:51:43;;;;;;;3.40;2.15;;;;;;;15.66;44.17;96948.09;4928964;29;20024;-70
2021/05/04 00:54:09;;;;;;;2.20;1.67;;;;;;;16.26;42.15;97049.19;4928877;29;20090;-70
2021/05/04 00:56:36;;;;;;;2.80;2.08;;;;;;;16.25;40.98;97047.56;4928370;29;20201;-70
2021/05/04 00:59:03;;;;;;;4.10;2.03;;;;;;;16.25;41.32;97042.00;4927391;29;20058;-70
2021/05/04 01:01:30;;;;;;;3.92;1.80;;;;;;;15.82;40.62;97007.06;4926731;29;20028;-70
2021/05/04 01:03:56;;;;;;;2.65;1.77;;;;;;;15.98;41.32;97021.34;4928892;29;20494;-70
2021/05/04 01:06:22;;;;;;;3.53;1.73;;;;;;;15.02;41.21;96874.13;4928284;29;20028;-70
2021/05/04 01:08:47;;;;;;;2.40;1.77;;;;;;;15.77;40.72;97007.50;4929079;29;20502;-70
2021/05/04 01:11:12;;;;;;;2.28;1.67;;;;;;;16.05;40.50;97054.88;4928253;29;20023;-70
2021/05/04 01:13:38;;;;;;;3.15;2.22;;;;;;;16.03;41.41;97057.25;4928423;29;20047;-70
2021/05/04 01:16:04;;;;;;;3.40;1.67;;;;;;;14.81;42.69;96880.56;4928237;29;20040;-71
2021/05/04 01:18:29;;;;;;;3.20;1.63;;;;;;;15.97;41.35;97069.25;4928304;29;20048;-69
2021/05/04 01:20:54;;;;;;;2.28;1.75;;;;;;;15.97;41.23;97077.63;4926658;29;20035;-70
2021/05/04 01:23:20;;;;;;;3.08;1.73;;;;;;;16.04;40.61;97058.88;4928362;29;20040;-70
2021/05/04 01:25:46;;;;;;;3.35;2.03;;;;;;;16.01;40.22;97059.66;4928321;29;20032;-70
2021/05/04 01:28:11;;;;;;;3.00;1.98;;;;;;;16.00;40.89;97058.06;4928366;29;20039;-70
2021/05/04 01:30:37;;;;;;;3.00;1.95;;;;;;;15.96;41.28;97051.72;4927819;29;20031;-69
2021/05/04 01:33:03;;;;;;;4.57;1.77;;;;;;;15.60;41.54;97002.75;4925893;28;20040;-72
2021/05/04 01:35:28;;;;;;;4.18;2.00;;;;;;;15.78;41.61;97078.91;4927868;29;20558;-70
2021/05/04 01:37:56;;;;;;;5.43;2.47;;;;;;;15.85;41.17;97070.53;4927919;29;20051;-69
2021/05/04 01:40:21;;;;;;;4.07;2.45;;;;;;;15.66;40.87;97026.28;4926612;29;20095;-70
2021/05/04 01:42:47;;;;;;;3.90;1.50;;;;;;;15.91;40.83;97066.09;4926327;29;20035;-70
2021/05/04 01:45:16;;;;;;;3.17;2.03;;;;;;;15.95;41.12;97078.03;4927932;29;20547;-70
2021/05/04 01:47:43;;;;;;;4.90;1.80;;;;;;;15.97;40.39;97067.28;4928001;29;20126;-71
2021/05/04 01:50:09;;;;;;;4.55;2.10;;;;;;;16.03;39.71;97062.84;4927605;29;20411;-70
2021/05/04 01:52:35;;;;;;;5.55;2.58;;;;;;;16.01;40.25;97059.66;4927829;29;20043;-69
2021/05/04 01:55:01;;;;;;;2.95;1.90;;;;;;;15.89;40.88;97045.34;4927917;29;20051;-70
2021/05/04 01:57:27;;;;;;;4.60;1.98;;;;;;;15.76;40.63;97014.25;4927123;29;20055;-70
2021/05/04 01:59:53;;;;;;;3.05;1.63;;;;;;;15.09;41.02;96938.28;4925802;29;20040;-70
2021/05/04 02:02:18;;;;;;;2.58;2.30;;;;;;;15.88;41.10;97066.09;4925907;29;20496;-70
2021/05/04 02:04:44;;;;;;;4.80;2.40;;;;;;;15.81;41.52;97078.09;4928484;29;20040;-71
2021/05/04 02:07:09;;;;;;;4.57;2.10;;;;;;;15.74;41.73;97083.72;4927618;29;20031;-70
2021/05/04 02:09:35;;;;;;;4.13;1.88;;;;;;;15.75;41.79;97088.09;4942147;29;20565;-71
2021/05/04 02:12:00;;;;;;;3.38;2.28;;;;;;;14.89;42.19;96971.38;4927636;29;20035;-70
2021/05/04 02:14:26;;;;;;;2.72;2.35;;;;;;;15.02;42.44;96977.34;4942084;29;20043;-70
2021/05/04 02:16:52;;;;;;;3.83;2.45;;;;;;;15.62;42.00;97081.34;4927424;29;20082;-70
2021/05/04 02:19:17;;;;;;;3.92;1.60;;;;;;;15.43;42.44;97084.56;4927495;29;20527;-70
2021/05/04 02:21:42;;;;;;;3.58;2.10;;;;;;;15.44;43.04;97086.16;4927105;29;20059;-71
2021/05/04 02:24:08;;;;;;;4.60;2.20;;;;;;;15.30;43.56;97080.53;4927493;29;20043;-70
2021/05/04 02:26:34;;;;;;;3.22;1.80;;;;;;;15.26;44.32;97095.69;4941082;29;20482;-70
2021/05/04 02:28:59;;;;;;;2.60;2.10;;;;;;;15.17;44.79;97110.06;4927320;29;20042;-70
2021/05/04 02:31:25;;;;;;;5.07;2.17;;;;;;;15.06;44.14;97112.06;4926683;29;20063;-70
2021/05/04 02:33:50;;;;;;;3.38;2.00;;;;;;;15.04;44.53;97106.06;4926969;29;20036;-70
2021/05/04 02:36:16;;;;;;;4.30;2.58;;;;;;;14.96;44.41;97071.00;4926637;29;20040;-70
2021/05/04 02:38:42;;;;;;;6.03;2.67;;;;;;;15.15;44.54;97106.88;4926949;29;20039;-70
2021/05/04 02:41:08;;;;;;;3.78;2.03;;;;;;;14.84;44.52;97068.63;4940718;29;20032;-69
2021/05/04 02:43:34;;;;;;;5.45;2.40;;;;;;;15.11;44.94;97106.09;4927389;29;20051;-69
2021/05/04 02:46:00;;;;;;;4.65;2.38;;;;;;;14.19;44.97;96995.59;4925166;29;20131;-70
2021/05/04 02:48:26;;;;;;;2.55;2.10;;;;;;;14.98;45.99;97097.28;4927053;29;20118;-70
2021/05/04 02:50:51;;;;;;;5.05;2.30;;;;;;;15.08;44.96;97113.25;4926629;29;20058;-70
2021/05/04 02:53:17;;;;;;;3.00;2.38;;;;;;;12.06;45.70;96652.38;4926866;29;20043;-69
2021/05/04 02:55:43;;;;;;;3.30;2.53;;;;;;;14.75;45.74;97065.41;4926524;29;20745;-70
2021/05/04 02:58:08;;;;;;;4.22;2.25;;;;;;;15.09;45.75;97120.41;4926607;29;20585;-70
2021/05/04 03:00:35;;;;;;;2.72;2.33;;;;;;;15.19;45.47;97130.78;4926681;29;20035;-70
2021/05/04 03:03:00;;;;;;;3.40;2.60;;;;;;;15.18;46.00;97139.56;4927211;29;20044;-70
2021/05/04 03:05:27;;;;;;;4.45;2.65;;;;;;;15.18;46.34;97139.56;4926849;29;20032;-70
2021/05/04 03:07:52;;;;;;;5.55;2.80;;;;;;;15.19;45.71;97141.16;4925744;29;20633;-70
2021/05/04 03:10:18;;;;;;;3.22;2.25;;;;;;;15.14;45.79;97145.13;4925761;29;20047;-70
2021/05/04 03:12:43;;;;;;;4.78;2.45;;;;;;;14.71;47.18;97117.59;4925395;29;20036;-70
2021/05/04 03:15:10;;;;;;;3.30;2.58;;;;;;;14.19;46.93;97031.81;4926223;29;20496;-70
2021/05/04 03:17:35;;;;;;;3.05;2.70;;;;;;;14.96;47.21;97143.53;4924948;29;20047;-69
2021/05/04 03:20:01;;;;;;;3.03;2.13;;;;;;;14.82;47.30;97154.66;4941323;29;20392;-70
2021/05/04 03:22:26;;;;;;;4.28;2.58;;;;;;;14.49;47.58;97138.25;4926180;29;20040;-69
2021/05/04 03:24:52;;;;;;;3.00;2.50;;;;;;;14.77;47.76;97163.41;4926821;29;20075;-70
2021/05/04 03:27:17;;;;;;;5.43;2.47;;;;;;;14.41;47.38;97133.84;4926297;29;20031;-71
2021/05/04 03:29:43;;;;;;;3.58;2.72;;;;;;;14.70;47.69;97163.41;4926559;29;20067;-70
2021/05/04 03:32:09;;;;;;;4.90;3.08;;;;;;;14.26;48.03;97093.16;4926242;29;20036;-70
2021/05/04 03:34:34;;;;;;;6.97;2.65;;;;;;;13.58;48.94;97019.66;4926565;29;20067;-70
2021/05/04 03:37:00;;;;;;;4.50;2.40;;;;;;;14.57;48.97;97176.09;4924401;29;20047;-70
2021/05/04 03:39:25;;;;;;;4.00;2.42;;;;;;;14.54;49.03;97182.47;4940876;29;20087;-70
2021/05/04 03:41:50;;;;;;;5.28;2.25;;;;;;;14.72;48.45;97189.69;4924900;29;20154;-71
2021/05/04 03:44:16;;;;;;;4.25;2.55;;;;;;;14.71;48.12;97187.28;4926051;29;20031;-70
2021/05/04 03:46:43;;;;;;;7.10;2.60;;;;;;;14.44;48.35;97133.84;4925721;29;20091;-70
2021/05/04 03:49:09;;;;;;;3.28;2.55;;;;;;;15.03;47.59;97193.78;4926745;29;20490;-69
2021/05/04 03:51:35;;;;;;;5.40;2.55;;;;;;;15.27;47.95;97204.16;4939986;29;20063;-70
2021/05/04 03:54:01;;;;;;;5.05;2.90;;;;;;;14.80;47.42;97118.00;4926325;29;20428;-70
2021/05/04 03:56:26;;;;;;;5.68;2.80;;;;;;;15.38;46.83;97177.06;4925423;29;20040;-69
2021/05/04 03:58:52;;;;;;;5.05;2.58;;;;;;;15.63;46.79;97191.03;4925068;29;20047;-71
2021/05/04 04:01:17;;;;;;;4.72;2.72;;;;;;;15.76;46.79;97195.81;4924448;29;20027;-70
2021/05/04 04:03:43;;;;;;;3.65;2.42;;;;;;;15.62;46.83;97204.22;4924693;29;20595;-71
2021/05/04 04:06:08;;;;;;;4.45;2.67;;;;;;;15.94;46.53;97205.00;4926116;29;20411;-69
2021/05/04 04:08:33;;;;;;;12.23;2.78;;;;;;;15.85;46.54;97162.69;4926208;29;20647;-70
2021/05/04 04:10:59;;;;;;;5.22;3.47;;;;;;;16.16;46.06;97206.53;4924255;29;20035;-70
2021/05/04 04:13:24;;;;;;;5.75;2.90;;;;;;;16.12;46.76;97236.47;4925897;29;20044;-68
2021/05/04 04:15:50;;;;;;;4.25;2.65;;;;;;;15.52;46.55;97110.09;4925971;29;20028;-69
2021/05/04 04:18:15;;;;;;;5.80;2.85;;;;;;;16.49;46.33;97225.66;4924758;29;20043;-69
2021/05/04 04:20:41;;;;;;;3.53;2.60;;;;;;;16.40;45.99;97233.66;4924521;29;20049;-70
2021/05/04 04:23:06;;;;;;;4.30;2.53;;;;;;;16.48;46.21;97240.03;4927868;29;20040;-71
2021/05/04 04:25:32;;;;;;;3.25;2.40;;;;;;;16.66;45.44;97228.78;4929113;29;20538;-69
2021/05/04 04:27:57;;;;;;;4.50;2.72;;;;;;;15.99;45.67;97106.78;4927812;29;20036;-70
2021/05/04 04:30:24;;;;;;;5.50;2.92;;;;;;;16.58;45.84;97172.88;4927430;29;20074;-69
2021/05/04 04:32:51;;;;;;;6.80;3.50;;;;;;;16.92;45.19;97231.06;4929196;29;20062;-69
2021/05/04 04:35:16;;;;;;;4.18;2.72;;;;;;;17.02;45.14;97233.84;4943446;29;20582;-69
2021/05/04 04:37:42;;;;;;;4.70;2.72;;;;;;;16.11;45.03;97109.13;4929173;29;20047;-71
2021/05/04 04:40:08;;;;;;;3.97;2.78;;;;;;;16.91;44.59;97235.06;4927680;29;20581;-71
2021/05/04 04:42:34;;;;;;;5.05;3.10;;;;;;;16.90;44.32;97239.88;4928904;29;20242;-70
2021/05/04 04:45:00;;;;;;;3.75;2.67;;;;;;;16.99;43.63;97236.66;4929116;29;20114;-68
2021/05/04 04:47:25;;;;;;;3.35;2.42;;;;;;;16.12;43.89;97099.53;4926883;29;20122;-69
2021/05/04 04:49:51;;;;;;;4.60;2.60;;;;;;;16.77;43.76;97209.97;4929011;29;20091;-71
2021/05/04 04:52:16;;;;;;;4.75;3.03;;;;;;;17.08;43.93;97242.59;4928655;29;20052;-70
2021/05/04 04:54:42;;;;;;;6.13;3.30;;;;;;;17.42;43.76;97243.59;4927041;29;20055;-70
2021/05/04 04:57:08;;;;;;;7.20;3.00;;;;;;;17.50;43.61;97233.94;4927904;29;20527;-70
2021/05/04 04:59:34;;;;;;;2.83;2.58;;;;;;;17.56;42.78;97237.94;4929480;29;20162;-70
2021/05/04 05:02:00;;;;;;;3.65;2.90;;;;;;;17.54;42.84;97237.53;4943251;29;20476;-71
2021/05/04 05:04:25;;;;;;;16.08;10.63;;;;;;;17.29;42.91;97217.28;4928780;29;20150;-70
2021/05/04 05:06:51;;;;;;;12.45;8.60;;;;;;;16.37;43.14;97058.31;4928402;29;20036;-69
2021/05/04 05:09:17;;;;;;;6.55;3.05;;;;;;;16.89;43.11;97147.94;4929165;29;20044;-72
2021/05/04 05:11:42;;;;;;;9.40;3.88;;;;;;;17.53;43.25;97233.16;4926320;29;20420;-72
2021/05/04 05:14:08;;;;;;;5.50;3.28;;;;;;;17.34;43.66;97233.66;4927068;29;20067;-71
2021/05/04 05:16:38;;;;;;;3.67;3.10;;;;;;;17.02;43.67;97241.44;4926649;29;20467;-71
2021/05/04 05:19:04;;;;;;;3.92;2.70;;;;;;;17.17;43.82;97237.31;4928786;29;20075;-70
2021/05/04 05:21:32;;;;;;;5.68;3.08;;;;;;;17.31;44.21;97240.06;4928267;29;20040;-71
2021/05/04 05:24:00;;;;;;;6.55;3.25;;;;;;;17.59;43.91;97242.72;4943306;29;20046;-71
2021/05/04 05:26:26;;;;;;;3.05;2.75;;;;;;;17.41;43.78;97181.19;4942431;29;20593;-72
2021/05/04 05:28:55;;;;;;;6.07;2.83;;;;;;;17.90;42.54;97203.22;4928737;29;20036;-70
2021/05/04 05:31:22;;;;;;;6.90;3.10;;;;;;;18.31;41.90;97250.06;4926346;29;20071;-70
2021/05/04 05:33:48;;;;;;;4.95;3.53;;;;;;;17.94;41.37;97180.75;4927246;29;20035;-69
2021/05/04 05:36:14;;;;;;;5.07;3.72;;;;;;;17.97;40.48;97174.31;4927763;29;20040;-70
2021/05/04 05:38:39;;;;;;;3.50;3.20;;;;;;;18.73;40.15;97253.25;4928322;29;20036;-72
2021/05/04 05:41:05;;;;;;;5.25;3.72;;;;;;;18.84;39.72;97251.13;4927770;29;20078;-72
2021/05/04 05:43:31;;;;;;;7.03;3.83;;;;;;;18.30;39.97;97165.16;4926369;29;20123;-70
2021/05/04 05:45:57;;;;;;;7.22;3.90;;;;;;;18.51;38.47;97217.44;4942063;29;20035;-71
2021/05/04 05:48:23;;;;;;;8.35;4.97;;;;;;;18.55;39.32;97238.66;4942183;29;20410;-73
2021/05/04 05:50:48;;;;;;;6.28;4.80;;;;;;;18.91;39.21;97267.88;4926253;29;20036;-70
2021/05/04 05:53:14;;;;;;;5.75;5.15;;;;;;;18.57;37.97;97151.25;4928298;29;20127;-70
2021/05/04 05:55:40;;;;;;;7.78;4.82;;;;;;;19.15;37.78;97255.56;4927646;29;20123;-70
2021/05/04 05:58:06;;;;;;;5.40;4.90;;;;;;;19.42;37.65;97259.22;4927737;29;20071;-69
2021/05/04 06:00:31;;;;;;;8.68;4.65;;;;;;;19.13;38.51;97206.63;4927238;29;20074;-69
2021/05/04 06:03:02;;;;;;;7.30;5.32;;;;;;;19.33;39.17;97218.81;4927622;29;20071;-68
2021/05/04 06:05:27;;;;;;;5.10;4.60;;;;;;;19.69;38.32;97261.22;4927706;29;20023;-70
2021/05/04 06:07:53;;;;;;;5.95;4.72;;;;;;;19.63;37.98;97229.22;4925948;29;20039;-69
2021/05/04 06:10:18;;;;;;;7.32;4.70;;;;;;;19.79;37.32;97243.41;4925696;29;21152;-69
2021/05/04 06:12:44;;;;;;;6.22;3.90;;;;;;;19.99;38.02;97230.22;4927635;29;20050;-70
2021/05/04 06:15:10;;;;;;;3.53;3.20;;;;;;;20.59;36.51;97235.59;4927127;29;20501;-70
2021/05/04 06:17:36;;;;;;;4.25;3.50;;;;;;;20.93;35.87;97238.91;4927390;29;20423;-69
2021/05/04 06:20:01;;;;;;;4.18;3.20;;;;;;;20.98;35.88;97230.00;4927381;29;20115;-69
2021/05/04 06:22:27;;;;;;;3.13;2.80;;;;;;;20.76;36.38;97240.06;4926716;29;20046;-70
2021/05/04 06:24:52;;;;;;;6.28;3.05;;;;;;;20.40;36.48;97211.03;4927371;29;20120;-68
2021/05/04 06:27:18;;;;;;;4.82;3.17;;;;;;;20.55;35.98;97246.13;4940744;29;20479;-68
2021/05/04 06:29:45;;;;;;;5.00;4.20;;;;;;;20.35;36.26;97243.28;4927344;29;20479;-69
2021/05/04 06:32:11;;;;;;;4.07;2.88;;;;;;;20.56;36.67;97256.16;4941772;29;20028;-70
2021/05/04 06:34:37;;;;;;;8.40;3.55;;;;;;;20.31;37.21;97247.38;4927420;29;20054;-68
2021/05/04 06:37:04;;;;;;;4.95;3.30;;;;;;;20.10;38.16;97253.34;4926877;29;20034;-68
2021/05/04 06:39:30;;;;;;;4.65;3.42;;;;;;;20.06;38.29;97252.63;4927315;29;20036;-69
2021/05/04 06:41:55;;;;;;;4.80;3.10;;;;;;;19.32;38.51;97125.31;4926637;29;20114;-70
2021/05/04 06:44:21;;;;;;;7.28;2.88;;;;;;;20.01;38.49;97253.09;4925368;29;20032;-70
2021/05/04 06:46:46;;;;;;;4.72;2.95;;;;;;;20.22;38.41;97244.31;4926105;29;20035;-70
2021/05/04 06:49:12;;;;;;;2.83;2.22;;;;;;;20.54;37.86;97238.91;4927272;29;20031;-69
2021/05/04 06:51:37;;;;;;;3.88;2.85;;;;;;;19.65;37.37;97126.38;4926114;29;20028;-70
2021/05/04 06:54:04;;;;;;;3.45;2.65;;;;;;;20.47;37.92;97228.56;4940906;29;20087;-71
2021/05/04 06:56:30;;;;;;;8.93;3.67;;;;;;;20.03;36.18;97169.09;4926181;29;20570;-71
2021/05/04 06:58:55;;;;;;;4.03;2.55;;;;;;;18.17;39.28;97183.72;4927402;29;20052;-69
2021/05/04 07:01:21;;;;;;;5.03;3.00;;;;;;;19.13;39.10;97232.69;4924759;29;20627;-70
2021/05/04 07:03:46;;;;;;;3.90;3.03;;;;;;;19.47;38.32;97222.19;4927043;29;20054;-69
2021/05/04 07:06:12;;;;;;;5.40;3.10;;;;;;;18.19;39.15;97087.97;4940476;29;20431;-69
2021/05/04 07:08:37;;;;;;;4.05;2.60;;;;;;;18.76;38.91;97179.44;4926740;29;20483;-69
2021/05/04 07:11:02;;;;;;;3.20;2.20;;;;;;;18.50;38.71;97100.81;4926122;29;20036;-70
2021/05/04 07:13:28;;;;;;;4.88;3.13;;;;;;;18.18;39.44;97201.34;4926677;29;20038;-68
2021/05/04 07:15:53;;;;;;;3.20;2.55;;;;;;;18.11;40.81;97219.03;4925849;29;20028;-71
2021/05/04 07:18:20;;;;;;;4.95;2.90;;;;;;;18.33;41.16;97202.78;4926880;29;20487;-70
2021/05/04 07:20:46;;;;;;;3.67;2.75;;;;;;;18.95;38.81;97195.63;4925646;29;20023;-71
2021/05/04 07:23:13;;;;;;;3.70;2.70;;;;;;;18.26;41.02;97209.25;4926571;29;20497;-70
2021/05/04 07:25:39;;;;;;;4.82;3.25;;;;;;;18.42;40.19;97200.31;4926212;29;20477;-70
2021/05/04 07:28:06;;;;;;;4.65;3.17;;;;;;;18.79;39.21;97203.88;4924913;29;20130;-70
2021/05/04 07:30:33;;;;;;;4.05;2.80;;;;;;;18.63;39.90;97200.06;4924704;29;20563;-70
2021/05/04 07:32:59;;;;;;;3.67;2.47;;;;;;;17.94;39.25;97201.16;4926561;29;20044;-70
2021/05/04 07:35:25;;;;;;;6.15;3.00;;;;;;;17.65;40.05;97174.63;4925935;29;20047;-70
2021/05/04 07:37:51;;;;;;;3.50;2.35;;;;;;;18.08;40.41;97198.22;4926349;29;20047;-70
2021/05/04 07:40:16;;;;;;;4.68;2.50;;;;;;;18.29;39.75;97213.25;4924621;29;20103;-68
2021/05/04 07:42:42;;;;;;;10.52;3.22;;;;;;;17.47;40.22;97072.31;4925873;29;20047;-71
2021/05/04 07:45:08;;;;;;;19.75;4.05;;;;;;;18.12;41.22;97119.69;4924961;29;20036;-70
2021/05/04 07:47:34;;;;;;;12.18;2.35;;;;;;;19.09;38.68;97194.66;4923560;29;20043;-69
2021/05/04 07:49:59;;;;;;;4.38;2.33;;;;;;;17.80;39.42;97080.00;4925716;29;20440;-70
2021/05/04 07:52:25;;;;;;;3.10;2.75;;;;;;;17.92;40.10;97107.50;4924322;29;20044;-70
2021/05/04 07:54:53;;;;;;;4.60;3.03;;;;;;;19.16;39.18;97184.13;4925108;29;20055;-69
2021/05/04 07:57:20;;;;;;;4.38;2.67;;;;;;;19.37;38.18;97183.84;4927051;29;20039;-70
2021/05/04 07:59:45;;;;;;;4.47;2.45;;;;;;;18.79;38.86;97135.72;4943403;29;20042;-72
2021/05/04 08:02:11;;;;;;;3.97;2.42;;;;;;;18.23;39.22;97111.94;4928457;29;20035;-69
2021/05/04 08:04:36;;;;;;;5.32;3.13;;;;;;;19.20;39.53;97190.50;4927530;29;20430;-70
2021/05/04 08:07:06;;;;;;;3.83;2.50;;;;;;;19.43;38.65;97181.31;4928493;29;20040;-69
2021/05/04 08:09:32;;;;;;;3.92;2.60;;;;;;;18.67;36.84;96976.34;4929076;29;20582;-69
2021/05/04 08:11:57;;;;;;;4.82;2.10;;;;;;;19.24;36.55;97129.44;4926818;29;20126;-70
2021/05/04 08:14:24;;;;;;;4.97;2.13;;;;;;;19.91;36.91;97178.13;4929083;29;20423;-70
2021/05/04 08:16:50;;;;;;;4.45;2.88;;;;;;;20.66;36.26;97173.53;4928960;29;20098;-70
2021/05/04 08:19:15;;;;;;;3.60;2.58;;;;;;;21.11;34.33;97179.41;4929274;29;20040;-69
2021/05/04 08:21:43;;;;;;;6.07;2.90;;;;;;;21.18;35.08;97165.19;4929075;29;20055;-70
2021/05/04 08:24:10;;;;;;;2.92;2.50;;;;;;;21.43;34.31;97177.47;4929575;29;20043;-69
2021/05/04 08:26:35;;;;;;;1.92;1.75;;;;;;;20.90;33.72;97166.56;4927529;29;20028;-69
2021/05/04 08:29:01;;;;;;;4.70;3.20;;;;;;;20.05;35.46;97166.63;4929694;29;20050;-70
2021/05/04 08:31:26;;;;;;;4.88;2.83;;;;;;;20.54;35.45;97171.34;4927316;29;20040;-69
2021/05/04 08:33:52;;;;;;;9.70;3.60;;;;;;;21.33;35.15;97183.34;4929524;29;20040;-69
2021/05/04 08:36:18;;;;;;;5.47;2.42;;;;;;;20.98;33.09;97122.97;4929120;29;20090;-68
2021/05/04 08:38:43;;;;;;;3.63;2.78;;;;;;;20.50;34.62;97165.00;4929594;29;20483;-68
2021/05/04 08:41:09;;;;;;;4.35;2.78;;;;;;;20.83;33.66;97172.34;4927387;29;20430;-69
2021/05/04 08:43:35;;;;;;;5.18;2.47;;;;;;;21.04;33.28;97084.59;4929664;29;20044;-70
2021/05/04 08:46:02;;;;;;;4.70;2.45;;;;;;;21.33;32.47;97065.78;4929326;29;20039;-70
2021/05/04 08:48:29;;;;;;;6.47;2.85;;;;;;;21.97;32.70;97161.63;4927309;29;20487;-70
2021/05/04 08:50:57;;;;;;;4.60;2.67;;;;;;;20.94;33.19;97164.47;4928554;29;20038;-70
2021/05/04 08:53:23;;;;;;;4.43;2.60;;;;;;;21.25;32.53;97171.44;4928581;29;20091;-69
2021/05/04 08:55:48;;;;;;;2.78;2.55;;;;;;;21.10;33.13;97170.19;4927241;29;20518;-70
2021/05/04 08:58:14;;;;;;;5.30;2.97;;;;;;;21.16;32.01;97095.19;4926931;29;20124;-70
2021/05/04 09:00:40;;;;;;;5.82;3.20;;;;;;;20.59;32.82;97097.66;4928250;29;20039;-70
2021/05/04 09:03:17;;;;;;;4.18;2.83;;;;;;;20.19;33.35;97107.31;4928790;29;20382;-68
2021/05/04 09:06:02;;;;;;;4.20;2.67;;;;;;;20.11;33.07;97131.97;4941992;29;20059;-69
2021/05/04 09:08:36;;;;;;;3.95;2.22;;;;;;;20.65;32.38;97167.09;4941130;28;20257;-69
2021/05/04 09:11:30;;;;;;;4.68;3.53;;;;;;;20.61;35.14;97165.59;4927925;29;20027;-69
2021/05/04 09:16:55;;;;;;;4.28;2.72;;;;;;;20.85;33.28;97136.09;4928220;29;20390;-70
2021/05/04 09:21:53;;;;;;;5.22;2.60;;;;;;;20.16;33.96;97133.50;4927892;29;20040;-69
2021/05/04 09:24:25;;;;;;;3.00;2.70;;;;;;;21.04;34.25;97140.16;4942512;29;20538;-70
2021/05/04 09:27:11;;;;;;;4.45;2.72;;;;;;;19.43;34.09;96889.94;4942279;29;20095;-69
2021/05/04 09:29:39;;;;;;;3.05;2.70;;;;;;;20.75;33.16;97032.94;4928220;29;20060;-70
2021/05/04 09:32:25;;;;;;;6.45;2.45;;;;;;;20.98;32.73;97131.41;4927790;29;20119;-70
2021/05/04 09:34:59;;;;;;;5.05;3.00;;;;;;;21.87;31.75;97126.06;4928414;29;20586;-71
2021/05/04 09:37:35;;;;;;;;;;;;;;;22.35;30.22;97130.81;4927907;29;20075;-71
2021/05/04 09:40:19;;;;;;;3.92;2.17;;;;;;;21.45;28.18;96988.94;4928161;29;20386;-71
2021/05/04 09:42:46;;;;;;;3.70;3.08;;;;;;;21.74;29.96;97054.66;4927827;29;20159;-69
2021/05/04 09:45:25;;;;;;;4.63;2.90;;;;;;;21.70;29.35;97103.91;4927509;29;20032;-68
2021/05/04 09:48:16;;;;;;;5.05;3.00;;;;;;;21.84;27.25;97118.47;4942119;29;20507;-69
2021/05/04 09:50:45;;;;;;;4.35;2.80;;;;;;;21.21;27.72;97114.41;4926249;29;20044;-69
2021/05/04 09:53:12;;;;;;;2.92;2.30;;;;;;;21.59;27.29;97100.56;4928246;29;20525;-69
2021/05/04 09:56:00;;;;;;;4.00;2.50;;;;;;;21.64;27.45;97108.50;4927143;29;20051;-70
2021/05/04 09:58:34;;;;;;;3.97;2.72;;;;;;;21.68;28.59;97118.47;4941898;29;20447;-71
2021/05/04 10:01:01;;;;;;;7.25;3.80;;;;;;;22.43;28.38;97116.03;4927407;29;20134;-71
2021/05/04 10:03:28;;;;;;;3.70;2.97;;;;;;;22.45;27.57;97119.19;4925829;29;20032;-69
2021/05/04 10:05:57;;;;;;;5.32;3.17;;;;;;;21.41;28.16;96880.38;4925708;29;20043;-69
2021/05/04 10:08:23;;;;;;;3.78;3.05;;;;;;;23.24;26.74;97056.28;4927504;29;20042;-70
2021/05/04 10:10:49;;;;;;;3.40;2.47;;;;;;;22.73;26.96;97099.88;4926043;29;20043;-69
2021/05/04 10:13:16;;;;;;;6.40;4.97;;;;;;;23.14;28.06;97020.69;4927064;29;20027;-68
2021/05/04 10:15:45;;;;;;;4.75;2.78;;;;;;;24.37;27.20;97110.63;4941510;29;20044;-71
2021/05/04 10:18:13;;;;;;;10.10;3.08;;;;;;;24.92;26.45;97081.44;4926789;29;20034;-70
2021/05/04 10:20:40;;;;;;;4.85;3.50;;;;;;;25.25;26.23;97095.91;4926529;29;20407;-70
2021/05/04 10:23:07;;;;;;;7.38;5.15;;;;;;;25.58;25.68;97096.22;4926641;29;20082;-69
2021/05/04 10:25:32;;;;;;;4.63;3.08;;;;;;;25.11;25.72;97085.94;4926639;29;20035;-70
2021/05/04 10:27:58;;;;;;;5.07;3.72;;;;;;;25.26;25.80;97081.28;4926817;29;20133;-68
2021/05/04 10:30:24;;;;;;;4.20;3.42;;;;;;;24.61;26.18;97026.75;4926870;29;20050;-68
2021/05/04 10:32:56;;;;;;;3.78;3.38;;;;;;;24.73;26.74;97076.91;4927396;29;20036;-69
2021/05/04 10:35:34;;;;;;;7.35;3.28;;;;;;;24.87;27.00;97065.03;4926870;29;20043;-69
2021/05/04 10:38:06;;;;;;;9.85;5.20;;;;;;;25.22;28.11;97057.16;4926511;29;20605;-70
2021/05/04 10:40:35;;;;;;;3.38;2.60;;;;;;;23.64;28.24;96916.75;4926507;29;20047;-69
2021/05/04 10:43:22;;;;;;;5.75;2.95;;;;;;;23.29;29.33;97067.03;4925238;29;20027;-70
2021/05/04 10:45:58;;;;;;;5.13;3.38;;;;;;;23.28;29.89;97068.31;4925106;29;20051;-74
2021/05/04 10:48:36;;;;;;;5.57;3.50;;;;;;;24.13;29.43;97064.16;4926905;29;20067;-72
2021/05/04 10:51:02;;;;;;;4.72;3.28;;;;;;;23.86;28.45;96993.16;4926718;29;20046;-72
2021/05/04 10:53:53;;;;;;;5.35;3.72;;;;;;;24.27;29.03;97055.16;4925308;29;20554;-71
2021/05/04 10:56:56;;;;;;;5.03;3.75;;;;;;;24.75;29.26;97050.94;4924572;29;20105;-72
2021/05/04 10:59:25;;;;;;;5.85;3.85;;;;;;;24.34;29.19;97043.59;4925043;29;20515;-72
2021/05/04 11:02:17;;;;;;;3.65;3.20;;;;;;;23.90;29.15;97056.06;4924781;29;20594;-72
2021/05/04 11:04:46;;;;;;;5.32;4.00;;;;;;;24.11;29.70;97046.84;4926159;29;20114;-71
2021/05/04 11:07:12;;;;;;;5.82;3.13;;;;;;;23.03;30.26;97054.16;4924443;29;20035;-72
2021/05/04 11:09:40;;;;;;;4.15;3.63;;;;;;;22.81;30.79;96993.91;4926109;29;20091;-72
2021/05/04 11:12:07;;;;;;;7.65;4.38;;;;;;;23.90;29.01;97047.56;4923809;29;20043;-72
2021/05/04 11:14:39;;;;;;;8.07;5.30;;;;;;;21.83;29.80;96784.06;4940942;29;20497;-72
2021/05/04 11:17:13;;;;;;;9.35;6.30;;;;;;;23.57;30.11;97037.81;4940084;29;20141;-71
2021/05/04 11:19:41;;;;;;;7.03;5.22;;;;;;;23.70;28.96;97038.59;4924615;29;20039;-71
2021/05/04 11:22:13;;;;;;;5.28;2.88;;;;;;;24.03;28.20;97011.56;4926184;29;20520;-71
2021/05/04 11:24:43;;;;;;;23.95;12.30;;;;;;;23.86;28.65;97041.25;4925272;29;20474;-72
2021/05/04 11:27:08;;;;;;;5.65;3.85;;;;;;;24.78;28.10;97033.81;4940251;29;20084;-71
2021/05/04 11:29:34;;;;;;;8.90;3.42;;;;;;;25.50;27.66;97026.88;4924184;29;20040;-72
2021/05/04 11:32:15;;;;;;;7.25;4.30;;;;;;;25.89;27.86;96975.66;4924723;29;20043;-71
2021/05/04 11:34:46;;;;;;;5.75;4.00;;;;;;;26.38;27.20;96981.19;4926031;29;20126;-71
2021/05/04 11:37:36;;;;;;;7.03;4.65;;;;;;;26.36;27.26;97026.31;4939752;29;20043;-71
2021/05/04 11:40:20;;;;;;;5.63;4.05;;;;;;;26.37;27.13;97023.00;4940004;29;20518;-72